Terminal Aerodrome Forecast
Issued by NWS Louisville, KY

Home | Current Version | Previous Version | Text Only | Print | Product List | Glossary On
Versions: 1 2 3 4 5 6 7 8 9 10 11 12 13 14
663
FTUS43 KLMK 281726
TAFBWG
TAF
KBWG 281726Z 2818/2918 19010KT P6SM VCSH FEW050 BKN150
     FM290000 18004KT P6SM BKN200=

USA.gov is the U.S. government's official web portal to all federal, state and local government web resources and services.